createdAt,value
2022-09-15T00:01:50.898Z,25.10
2022-09-15T00:04:17.504Z,25.10
2022-09-15T00:06:44.020Z,25.10
2022-09-15T00:09:10.441Z,25.09
2022-09-15T00:11:38.330Z,25.09
2022-09-15T00:14:06.968Z,25.09
2022-09-15T00:16:33.659Z,25.09
2022-09-15T00:19:00.813Z,25.07
2022-09-15T00:21:30.950Z,25.08
2022-09-15T00:23:59.262Z,25.07
2022-09-15T00:26:27.547Z,25.06
2022-09-15T00:28:54.609Z,25.06
2022-09-15T00:31:23.828Z,25.05
2022-09-15T00:33:52.319Z,25.06
2022-09-15T00:36:19.830Z,25.04
2022-09-15T00:38:46.615Z,25.04
2022-09-15T00:41:15.157Z,25.04
2022-09-15T00:44:01.103Z,25.03
2022-09-15T00:46:30.785Z,25.03
2022-09-15T00:49:06.430Z,25.01
2022-09-15T00:51:42.981Z,25.02
2022-09-15T00:54:16.499Z,25.01
2022-09-15T00:56:45.343Z,25.01
2022-09-15T00:59:17.119Z,25.00
2022-09-15T01:01:44.906Z,25.01
2022-09-15T01:04:12.834Z,24.99
2022-09-15T01:06:47.804Z,24.99
2022-09-15T01:09:23.769Z,24.99
2022-09-15T01:11:50.935Z,24.98
2022-09-15T01:14:17.443Z,24.98
2022-09-15T01:16:53.021Z,24.98
2022-09-15T01:20:00.255Z,24.96
2022-09-15T01:22:51.601Z,24.96
2022-09-15T01:25:56.541Z,24.95
2022-09-15T01:28:45.182Z,24.96
2022-09-15T01:31:29.419Z,24.94
2022-09-15T01:34:05.926Z,24.93
2022-09-15T01:36:45.333Z,24.94
2022-09-15T01:39:23.992Z,24.94
2022-09-15T01:41:55.424Z,24.92
2022-09-15T01:44:26.211Z,24.93
2022-09-15T01:47:02.202Z,24.92
2022-09-15T01:49:34.262Z,24.92
2022-09-15T01:52:01.055Z,24.89
2022-09-15T01:54:33.374Z,24.92
2022-09-15T01:56:59.961Z,24.92
2022-09-15T01:59:26.430Z,24.91
2022-09-15T02:02:04.561Z,24.89
2022-09-15T02:04:46.568Z,24.90
2022-09-15T02:07:31.194Z,24.89
2022-09-15T02:10:17.677Z,24.88
2022-09-15T02:12:56.072Z,24.89
2022-09-15T02:15:33.428Z,24.87
2022-09-15T02:18:02.521Z,24.86
2022-09-15T02:20:35.205Z,24.87
2022-09-15T02:23:08.140Z,24.86
2022-09-15T02:25:41.846Z,24.88
2022-09-15T02:28:11.539Z,24.86
2022-09-15T02:30:42.025Z,24.83
2022-09-15T02:33:14.679Z,24.84
2022-09-15T02:35:41.683Z,24.83
2022-09-15T02:38:10.548Z,24.84
2022-09-15T02:40:40.415Z,24.83
2022-09-15T02:43:11.061Z,24.83
2022-09-15T02:45:37.567Z,24.83
2022-09-15T02:48:04.635Z,24.82
2022-09-15T02:50:31.140Z,24.82
2022-09-15T02:52:57.730Z,24.82
2022-09-15T02:55:27.265Z,24.82
2022-09-15T02:57:53.705Z,24.81
2022-09-15T03:00:20.723Z,24.82
2022-09-15T03:02:51.110Z,24.81
2022-09-15T03:05:26.409Z,24.81
2022-09-15T03:07:53.355Z,24.81
2022-09-15T03:10:20.724Z,24.80
2022-09-15T03:12:49.614Z,24.80
2022-09-15T03:15:18.857Z,24.80
2022-09-15T03:17:46.959Z,24.80
2022-09-15T03:20:17.156Z,24.80
2022-09-15T03:22:44.038Z,24.79
2022-09-15T03:25:11.332Z,24.79
2022-09-15T03:27:38.381Z,24.79
2022-09-15T03:30:07.121Z,24.79
2022-09-15T03:32:33.551Z,24.77
2022-09-15T03:34:59.971Z,24.77
2022-09-15T03:37:26.719Z,24.77
2022-09-15T03:39:53.194Z,24.77
2022-09-15T03:42:20.571Z,24.77
2022-09-15T03:44:47.226Z,24.78
2022-09-15T03:47:13.697Z,24.76
2022-09-15T03:49:40.083Z,24.76
2022-09-15T03:52:06.510Z,24.76
2022-09-15T03:54:35.455Z,24.76
2022-09-15T03:57:02.124Z,24.75
2022-09-15T03:59:28.542Z,24.75
2022-09-15T04:01:55.017Z,24.73
2022-09-15T04:04:21.525Z,24.73
2022-09-15T04:06:47.996Z,24.73
2022-09-15T04:09:14.529Z,24.74
2022-09-15T04:11:40.969Z,24.72
2022-09-15T04:14:07.465Z,24.73
2022-09-15T04:16:34.172Z,24.73
2022-09-15T04:19:00.863Z,24.73
2022-09-15T04:21:27.343Z,24.74
2022-09-15T04:23:54.120Z,24.72
2022-09-15T04:26:31.384Z,24.73
2022-09-15T04:29:03.720Z,24.71
2022-09-15T04:31:31.893Z,24.71
2022-09-15T04:33:58.432Z,24.70
2022-09-15T04:36:27.411Z,24.72
2022-09-15T04:38:53.841Z,24.70
2022-09-15T04:41:20.986Z,24.69
2022-09-15T04:43:48.039Z,24.70
2022-09-15T04:46:15.217Z,24.70
2022-09-15T04:48:42.452Z,24.68
2022-09-15T04:51:12.729Z,24.68
2022-09-15T04:53:39.572Z,24.69
2022-09-15T04:56:08.488Z,24.67
2022-09-15T04:58:39.411Z,24.65
2022-09-15T05:01:13.370Z,24.66
2022-09-15T05:03:41.010Z,24.67
2022-09-15T05:06:09.997Z,24.66
2022-09-15T05:08:36.706Z,24.65
2022-09-15T05:11:05.758Z,24.66
2022-09-15T05:13:33.145Z,24.65
2022-09-15T05:16:12.046Z,24.65
2022-09-15T05:18:39.901Z,24.66
2022-09-15T05:21:07.836Z,24.67
2022-09-15T05:23:35.829Z,24.67
2022-09-15T05:26:04.952Z,24.68
2022-09-15T05:28:36.311Z,24.66
2022-09-15T05:31:11.410Z,24.67
2022-09-15T05:33:38.571Z,24.69
2022-09-15T05:36:05.373Z,24.69
2022-09-15T05:38:32.304Z,24.70
2022-09-15T05:41:07.300Z,24.70
2022-09-15T05:43:35.423Z,24.69
2022-09-15T05:46:02.894Z,24.72
2022-09-15T05:48:30.046Z,24.71
2022-09-15T05:50:56.972Z,24.72
2022-09-15T05:53:24.440Z,24.72
2022-09-15T05:55:58.073Z,24.73
2022-09-15T05:58:25.968Z,24.75
2022-09-15T06:00:53.475Z,24.76
2022-09-15T06:03:20.952Z,24.79
2022-09-15T06:05:47.816Z,24.75
2022-09-15T06:08:14.338Z,24.77
2022-09-15T06:10:40.794Z,24.77
2022-09-15T06:13:07.270Z,24.78
2022-09-15T06:15:33.752Z,24.78
2022-09-15T06:18:00.205Z,24.77
2022-09-15T06:20:26.729Z,24.82
2022-09-15T06:22:53.769Z,24.84
2022-09-15T06:25:20.261Z,24.83
2022-09-15T06:27:49.163Z,24.81
2022-09-15T06:30:15.687Z,24.81
2022-09-15T06:32:47.411Z,24.82
2022-09-15T06:35:15.189Z,24.85
2022-09-15T06:37:41.652Z,24.84
2022-09-15T06:40:08.831Z,24.84
2022-09-15T06:42:35.417Z,24.86
2022-09-15T06:45:01.881Z,24.85
2022-09-15T06:47:33.777Z,24.90
2022-09-15T06:50:00.991Z,24.93
2022-09-15T06:52:28.093Z,24.94
2022-09-15T06:54:54.598Z,24.96
2022-09-15T06:57:21.068Z,24.98
2022-09-15T06:59:47.542Z,24.97
2022-09-15T07:02:14.040Z,25.05
2022-09-15T07:04:40.533Z,25.10
2022-09-15T07:07:06.958Z,25.17
2022-09-15T07:09:33.428Z,25.23
2022-09-15T07:11:59.915Z,25.26
2022-09-15T07:14:26.340Z,25.33
2022-09-15T07:16:52.816Z,25.37
2022-09-15T07:19:19.243Z,25.43
2022-09-15T07:21:45.642Z,25.47
2022-09-15T07:24:12.757Z,25.54
2022-09-15T07:26:39.286Z,25.62
2022-09-15T07:29:06.907Z,25.71
2022-09-15T07:31:35.341Z,25.76
2022-09-15T07:34:02.416Z,25.82
2022-09-15T07:36:29.816Z,25.85
2022-09-15T07:38:56.691Z,25.89
2022-09-15T07:41:26.293Z,25.90
2022-09-15T07:43:54.990Z,25.90
2022-09-15T07:46:23.947Z,25.92
2022-09-15T07:48:53.107Z,25.95
2022-09-15T07:51:20.841Z,25.96
2022-09-15T07:53:48.881Z,25.96
2022-09-15T07:56:18.396Z,25.93
2022-09-15T07:58:46.434Z,25.86
2022-09-15T08:01:16.536Z,25.71
2022-09-15T08:03:45.300Z,25.68
2022-09-15T08:06:13.283Z,25.74
2022-09-15T08:08:41.282Z,25.75
2022-09-15T08:11:19.134Z,25.77
2022-09-15T08:13:50.114Z,25.81
2022-09-15T08:16:19.827Z,25.81
2022-09-15T08:18:46.469Z,25.84
2022-09-15T08:21:17.290Z,25.89
2022-09-15T08:23:44.030Z,25.90
2022-09-15T08:26:14.312Z,25.93
2022-09-15T08:28:42.266Z,25.96
2022-09-15T08:31:11.404Z,26.00
2022-09-15T08:33:43.146Z,26.03
2022-09-15T08:36:11.892Z,26.05
2022-09-15T08:38:40.422Z,26.08
2022-09-15T08:41:12.293Z,26.13
2022-09-15T08:43:53.381Z,26.16
2022-09-15T08:46:26.092Z,26.21
2022-09-15T08:49:08.023Z,26.24
2022-09-15T08:54:11.422Z,26.31
2022-09-15T08:56:39.278Z,26.35
2022-09-15T08:59:05.715Z,26.35
2022-09-15T09:01:41.547Z,26.39
2022-09-15T09:04:22.868Z,26.42
2022-09-15T09:07:01.030Z,26.42
2022-09-15T09:09:42.813Z,26.45
2022-09-15T09:12:19.853Z,26.46
2022-09-15T09:15:25.141Z,26.48
2022-09-15T09:18:16.042Z,26.52
2022-09-15T09:20:50.862Z,26.52
2022-09-15T09:23:22.204Z,26.57
2022-09-15T09:25:50.392Z,26.60
2022-09-15T09:28:40.732Z,26.63
2022-09-15T09:31:17.183Z,26.66
2022-09-15T09:34:03.764Z,26.70
2022-09-15T09:36:30.355Z,26.73
2022-09-15T09:38:57.196Z,26.78
2022-09-15T09:41:28.536Z,26.79
2022-09-15T09:43:55.965Z,26.86
2022-09-15T09:46:22.424Z,26.81
2022-09-15T09:49:20.280Z,26.84
2022-09-15T09:52:04.942Z,26.89
2022-09-15T09:54:33.835Z,26.97
2022-09-15T09:57:21.967Z,27.00
2022-09-15T09:59:50.421Z,27.09
2022-09-15T10:02:23.089Z,27.14
2022-09-15T10:04:51.925Z,27.19
2022-09-15T10:07:21.770Z,27.25
2022-09-15T10:09:59.991Z,27.26
2022-09-15T10:12:32.754Z,27.25
2022-09-15T10:15:04.432Z,27.24
2022-09-15T10:17:36.641Z,27.25
2022-09-15T10:20:06.162Z,27.25
2022-09-15T10:22:35.787Z,27.30
2022-09-15T10:25:23.732Z,27.32
2022-09-15T10:28:10.132Z,27.33
2022-09-15T10:30:37.170Z,27.33
2022-09-15T10:33:20.479Z,27.31
2022-09-15T10:35:46.976Z,27.30
2022-09-15T10:38:17.819Z,27.26
2022-09-15T10:41:03.141Z,27.23
2022-09-15T10:43:53.998Z,27.16
2022-09-15T10:46:44.943Z,27.12
2022-09-15T10:49:49.802Z,27.06
2022-09-15T10:52:40.393Z,27.03
2022-09-15T10:55:48.511Z,27.01
2022-09-15T10:58:17.587Z,26.94
2022-09-15T11:01:26.610Z,26.89
2022-09-15T11:04:08.486Z,26.86
2022-09-15T11:07:02.618Z,26.81
2022-09-15T11:10:05.327Z,26.75
2022-09-15T11:12:52.384Z,26.73
2022-09-15T11:15:33.464Z,26.70
2022-09-15T11:18:18.484Z,26.69
2022-09-15T11:20:50.864Z,26.71
2022-09-15T11:23:37.487Z,26.73
2022-09-15T11:26:20.605Z,26.75
2022-09-15T11:28:54.042Z,26.81
2022-09-15T11:31:26.924Z,26.87
2022-09-15T11:34:17.676Z,26.93
2022-09-15T11:37:01.506Z,26.98
2022-09-15T11:39:36.185Z,27.01
2022-09-15T11:42:13.770Z,27.06
2022-09-15T11:44:45.021Z,27.08
2022-09-15T11:47:14.767Z,27.13
2022-09-15T11:50:07.886Z,27.16
2022-09-15T11:52:59.424Z,27.24
2022-09-15T11:56:13.826Z,27.27
2022-09-15T11:58:49.006Z,27.31
2022-09-15T12:01:24.994Z,27.35
2022-09-15T12:04:08.508Z,27.40
2022-09-15T12:06:45.913Z,27.41
2022-09-15T12:09:15.974Z,27.42
2022-09-15T12:11:46.246Z,27.43
2022-09-15T12:14:17.097Z,27.46
2022-09-15T12:16:44.562Z,27.48
2022-09-15T12:19:41.130Z,27.43
2022-09-15T12:22:17.735Z,27.44
2022-09-15T12:24:58.850Z,27.45
2022-09-15T12:27:27.567Z,27.46
2022-09-15T12:29:56.546Z,27.45
2022-09-15T12:32:29.859Z,27.43
2022-09-15T12:35:02.563Z,27.40
2022-09-15T12:37:52.863Z,27.37
2022-09-15T12:40:39.824Z,27.34
2022-09-15T12:43:12.765Z,27.32
2022-09-15T12:45:41.422Z,27.29
2022-09-15T12:48:35.795Z,27.24
2022-09-15T12:51:05.689Z,27.24
2022-09-15T12:53:51.652Z,27.24
2022-09-15T12:56:24.674Z,27.23
2022-09-15T12:58:52.214Z,27.26
2022-09-15T13:01:19.167Z,27.28
2022-09-15T13:03:45.877Z,27.29
2022-09-15T13:06:26.250Z,27.30
2022-09-15T13:09:01.581Z,27.35
2022-09-15T13:11:37.531Z,27.36
2022-09-15T13:14:04.186Z,27.39
2022-09-15T13:16:52.828Z,27.39
2022-09-15T13:19:44.335Z,27.39
2022-09-15T13:22:10.711Z,27.39
2022-09-15T13:25:02.039Z,27.38
2022-09-15T13:27:50.371Z,27.35
2022-09-15T13:30:29.136Z,27.34
2022-09-15T13:33:15.480Z,27.32
2022-09-15T13:36:05.017Z,27.31
2022-09-15T13:38:54.598Z,27.31
2022-09-15T13:41:24.006Z,27.28
2022-09-15T13:44:08.593Z,27.27
2022-09-15T13:46:47.701Z,27.28
2022-09-15T13:49:43.207Z,27.27
2022-09-15T13:52:18.490Z,27.28
2022-09-15T13:55:21.437Z,27.28
2022-09-15T14:00:48.381Z,27.34
2022-09-15T14:03:18.021Z,27.35
2022-09-15T14:05:45.264Z,27.34
2022-09-15T14:08:26.399Z,27.34
2022-09-15T14:11:02.764Z,27.36
2022-09-15T14:13:30.485Z,27.34
2022-09-15T14:16:01.104Z,27.34
2022-09-15T14:18:28.724Z,27.33
2022-09-15T14:21:03.795Z,27.31
2022-09-15T14:23:31.036Z,27.28
2022-09-15T14:26:00.337Z,27.28
2022-09-15T14:28:32.243Z,27.27
2022-09-15T14:31:00.601Z,27.22
2022-09-15T14:33:37.860Z,27.21
2022-09-15T14:36:20.580Z,27.16
2022-09-15T14:39:02.929Z,27.11
2022-09-15T14:41:32.624Z,27.10
2022-09-15T14:43:59.023Z,27.07
2022-09-15T14:46:36.964Z,27.05
2022-09-15T14:49:11.295Z,27.02
2022-09-15T14:51:38.545Z,26.99
2022-09-15T14:54:07.697Z,26.98
2022-09-15T14:56:41.133Z,26.97
2022-09-15T14:59:14.810Z,26.94
2022-09-15T15:01:50.857Z,26.93
2022-09-15T15:04:31.035Z,26.91
2022-09-15T15:07:08.147Z,26.92
2022-09-15T15:09:58.127Z,26.89
2022-09-15T15:12:34.532Z,26.88
2022-09-15T15:15:01.802Z,26.88
2022-09-15T15:17:47.883Z,26.89
2022-09-15T15:20:22.723Z,26.87
2022-09-15T15:23:08.027Z,26.88
2022-09-15T15:25:34.605Z,26.86
2022-09-15T15:28:03.202Z,26.87
2022-09-15T15:30:29.652Z,26.88
2022-09-15T15:33:26.636Z,26.84
2022-09-15T15:36:13.837Z,26.82
2022-09-15T15:38:57.526Z,26.80
2022-09-15T15:41:29.638Z,26.78
2022-09-15T15:44:09.286Z,26.77
2022-09-15T15:46:50.967Z,26.74
2022-09-15T15:49:18.711Z,26.72
2022-09-15T15:51:45.194Z,26.69
2022-09-15T15:54:11.716Z,26.66
2022-09-15T15:56:38.504Z,26.62
2022-09-15T15:59:05.835Z,26.59
2022-09-15T16:01:33.231Z,26.56
2022-09-15T16:03:59.734Z,26.54
2022-09-15T16:06:26.249Z,26.51
2022-09-15T16:08:52.828Z,26.48
2022-09-15T16:11:20.822Z,26.44
2022-09-15T16:13:48.266Z,26.42
2022-09-15T16:16:14.792Z,26.40
2022-09-15T16:18:41.268Z,26.40
2022-09-15T16:21:15.836Z,26.37
2022-09-15T16:23:42.327Z,26.35
2022-09-15T16:26:13.455Z,26.29
2022-09-15T16:28:40.163Z,26.30
2022-09-15T16:31:10.879Z,26.27
2022-09-15T16:33:38.229Z,26.24
2022-09-15T16:36:08.118Z,26.24
2022-09-15T16:38:36.275Z,26.19
2022-09-15T16:41:04.222Z,26.16
2022-09-15T16:43:30.672Z,26.14
2022-09-15T16:45:57.879Z,26.12
2022-09-15T16:48:27.345Z,26.10
2022-09-15T16:51:20.358Z,26.10
2022-09-15T16:53:40.982Z,26.06
2022-09-15T16:56:11.437Z,26.04
2022-09-15T16:58:38.449Z,26.03
2022-09-15T17:01:05.552Z,26.01
2022-09-15T17:03:32.409Z,25.99
2022-09-15T17:06:00.844Z,26.00
2022-09-15T17:08:31.080Z,25.97
2022-09-15T17:11:00.651Z,25.96
2022-09-15T17:13:30.694Z,25.95
2022-09-15T17:15:57.855Z,25.92
2022-09-15T17:18:24.911Z,25.93
2022-09-15T17:20:51.722Z,25.93
2022-09-15T17:23:23.982Z,25.91
2022-09-15T17:25:52.919Z,25.88
2022-09-15T17:28:24.377Z,25.88
2022-09-15T17:30:55.716Z,25.87
2022-09-15T17:33:23.106Z,25.86
2022-09-15T17:35:49.891Z,25.85
2022-09-15T17:38:16.535Z,25.85
2022-09-15T17:40:43.081Z,25.82
2022-09-15T17:43:15.974Z,25.82
2022-09-15T17:45:45.194Z,25.82
2022-09-15T17:48:12.281Z,25.80
2022-09-15T17:50:39.894Z,25.78
2022-09-15T17:53:13.961Z,25.78
2022-09-15T17:55:41.043Z,25.78
2022-09-15T17:58:08.008Z,25.76
2022-09-15T18:00:37.457Z,25.75
2022-09-15T18:03:28.801Z,25.73
2022-09-15T18:06:16.560Z,25.73
2022-09-15T18:08:44.176Z,25.72
2022-09-15T18:11:13.821Z,25.70
2022-09-15T18:13:40.219Z,25.69
2022-09-15T18:16:11.342Z,25.69
2022-09-15T18:18:39.951Z,25.68
2022-09-15T18:21:15.658Z,25.68
2022-09-15T18:23:42.454Z,25.67
2022-09-15T18:26:09.153Z,25.65
2022-09-15T18:28:35.575Z,25.64
2022-09-15T18:31:02.021Z,25.65
2022-09-15T18:33:29.064Z,25.63
2022-09-15T18:35:59.090Z,25.61
2022-09-15T18:38:25.896Z,25.61
2022-09-15T18:40:55.264Z,25.61
2022-09-15T18:43:22.949Z,25.60
2022-09-15T18:45:50.292Z,25.59
2022-09-15T18:48:16.818Z,25.59
2022-09-15T18:50:44.580Z,25.59
2022-09-15T18:53:11.718Z,25.56
2022-09-15T18:55:41.537Z,25.56
2022-09-15T18:58:11.244Z,25.55
2022-09-15T19:00:41.237Z,25.54
2022-09-15T19:03:11.251Z,25.55
2022-09-15T19:05:38.528Z,25.54
2022-09-15T19:08:05.108Z,25.54
2022-09-15T19:10:32.461Z,25.51
2022-09-15T19:12:58.854Z,25.50
2022-09-15T19:15:25.276Z,25.50
2022-09-15T19:17:51.822Z,25.50
2022-09-15T19:20:18.804Z,25.49
2022-09-15T19:22:46.084Z,25.48
2022-09-15T19:25:14.508Z,25.47
2022-09-15T19:27:41.316Z,25.47
2022-09-15T19:30:09.965Z,25.46
2022-09-15T19:32:37.035Z,25.45
2022-09-15T19:35:04.280Z,25.45
2022-09-15T19:37:30.737Z,25.44
2022-09-15T19:39:57.354Z,25.43
2022-09-15T19:42:23.831Z,25.43
2022-09-15T19:44:50.376Z,25.42
2022-09-15T19:47:16.977Z,25.41
2022-09-15T19:49:46.294Z,25.42
2022-09-15T19:52:12.862Z,25.42
2022-09-15T19:54:39.306Z,25.42
2022-09-15T19:57:05.751Z,25.40
2022-09-15T19:59:32.484Z,25.40
2022-09-15T20:02:00.552Z,25.39
2022-09-15T20:04:28.032Z,25.37
2022-09-15T20:06:54.486Z,25.36
2022-09-15T20:09:20.970Z,25.37
2022-09-15T20:11:47.612Z,25.36
2022-09-15T20:14:14.747Z,25.34
2022-09-15T20:16:41.356Z,25.35
2022-09-15T20:19:08.002Z,25.33
2022-09-15T20:21:49.921Z,25.31
2022-09-15T20:24:17.426Z,25.33
2022-09-15T20:26:43.887Z,25.31
2022-09-15T20:29:10.675Z,25.32
2022-09-15T20:31:37.286Z,25.32
2022-09-15T20:34:03.683Z,25.30
2022-09-15T20:36:33.424Z,25.30
2022-09-15T20:39:00.984Z,25.29
2022-09-15T20:41:31.906Z,25.28
2022-09-15T20:43:58.661Z,25.28
2022-09-15T20:46:25.262Z,25.26
2022-09-15T20:48:52.431Z,25.26
2022-09-15T20:51:27.844Z,25.25
2022-09-15T20:53:55.983Z,25.25
2022-09-15T20:56:25.607Z,25.26
2022-09-15T20:58:54.215Z,25.24
2022-09-15T21:01:26.052Z,25.22
2022-09-15T21:03:53.340Z,25.22
2022-09-15T21:06:22.117Z,25.23
2022-09-15T21:08:50.008Z,25.22
2022-09-15T21:11:19.297Z,25.21
2022-09-15T21:13:47.163Z,25.19
2022-09-15T21:16:16.557Z,25.19
2022-09-15T21:18:44.558Z,25.20
2022-09-15T21:21:19.145Z,25.17
2022-09-15T21:23:50.587Z,25.17
2022-09-15T21:26:22.061Z,25.16
2022-09-15T21:28:48.736Z,25.15
2022-09-15T21:31:16.798Z,25.14
2022-09-15T21:33:44.371Z,25.14
2022-09-15T21:36:24.568Z,25.14
2022-09-15T21:38:52.805Z,25.14
2022-09-15T21:41:21.986Z,25.13
2022-09-15T21:43:49.486Z,25.11
2022-09-15T21:46:18.620Z,25.11
2022-09-15T21:48:47.297Z,25.10
2022-09-15T21:51:15.739Z,25.11
2022-09-15T21:53:43.038Z,25.10
2022-09-15T21:56:11.937Z,25.10
2022-09-15T21:58:43.018Z,25.10
2022-09-15T22:01:19.852Z,25.09
2022-09-15T22:03:51.453Z,25.09
2022-09-15T22:06:19.373Z,25.06
2022-09-15T22:08:46.691Z,25.06
2022-09-15T22:11:13.487Z,25.04
2022-09-15T22:13:42.149Z,25.06
2022-09-15T22:16:12.101Z,25.06
2022-09-15T22:18:39.932Z,25.05
2022-09-15T22:21:09.271Z,25.04
2022-09-15T22:23:36.309Z,25.04
2022-09-15T22:26:05.236Z,25.02
2022-09-15T22:28:31.719Z,25.02
2022-09-15T22:30:59.730Z,25.02
2022-09-15T22:33:27.036Z,25.01
2022-09-15T22:35:53.593Z,25.00
2022-09-15T22:38:20.675Z,25.00
2022-09-15T22:40:47.138Z,24.99
2022-09-15T22:43:13.633Z,24.97
2022-09-15T22:45:40.060Z,24.96
2022-09-15T22:48:06.874Z,24.97
2022-09-15T22:50:33.710Z,24.96
2022-09-15T22:53:00.105Z,24.96
2022-09-15T22:55:26.577Z,24.95
2022-09-15T22:57:53.035Z,24.94
2022-09-15T23:00:20.378Z,24.94
2022-09-15T23:02:47.279Z,24.96
2022-09-15T23:05:13.762Z,24.95
2022-09-15T23:07:40.353Z,24.94
2022-09-15T23:10:07.395Z,24.92
2022-09-15T23:12:34.770Z,24.92
2022-09-15T23:15:04.200Z,24.91
2022-09-15T23:17:31.582Z,24.91
2022-09-15T23:19:58.021Z,24.89
2022-09-15T23:22:24.444Z,24.91
2022-09-15T23:24:50.852Z,24.90
2022-09-15T23:27:17.389Z,24.90
2022-09-15T23:29:43.904Z,24.89
2022-09-15T23:32:10.336Z,24.88
2022-09-15T23:34:36.776Z,24.86
2022-09-15T23:37:03.425Z,24.87
2022-09-15T23:39:29.924Z,24.86
2022-09-15T23:41:56.554Z,24.87
2022-09-15T23:44:23.506Z,24.85
2022-09-15T23:46:49.986Z,24.86
2022-09-15T23:49:18.701Z,24.85
2022-09-15T23:51:45.487Z,24.84
2022-09-15T23:54:11.987Z,24.82
2022-09-15T23:56:38.480Z,24.85
2022-09-15T23:59:04.863Z,24.82
